createdAt,value
2023-01-27T00:01:15.853Z,25.27
2023-01-27T00:06:20.664Z,30.65
2023-01-27T00:11:40.940Z,28.50
2023-01-27T00:16:45.343Z,25.92
2023-01-27T00:22:06.037Z,24.83
2023-01-27T00:27:09.529Z,31.15
2023-01-27T00:32:32.076Z,28.65
2023-01-27T00:37:33.807Z,29.95
2023-01-27T00:42:35.683Z,29.98
2023-01-27T00:47:37.301Z,35.28
2023-01-27T00:52:43.437Z,34.85
2023-01-27T00:57:45.089Z,34.58
2023-01-27T01:02:49.249Z,29.50
2023-01-27T01:07:56.569Z,36.25
2023-01-27T01:13:00.267Z,37.15
2023-01-27T01:18:04.819Z,35.10
2023-01-27T01:23:09.787Z,39.03
2023-01-27T01:28:11.387Z,33.92
2023-01-27T01:33:13.743Z,37.83
2023-01-27T01:38:15.245Z,38.28
2023-01-27T01:43:21.067Z,38.63
2023-01-27T01:48:46.887Z,35.40
2023-01-27T01:54:11.300Z,40.38
2023-01-27T01:59:19.260Z,41.60
2023-01-27T02:09:30.625Z,35.20
2023-01-27T02:14:32.826Z,42.92
2023-01-27T02:19:58.563Z,44.85
2023-01-27T02:25:09.213Z,43.85
2023-01-27T02:30:11.351Z,44.75
2023-01-27T02:35:19.282Z,42.40
2023-01-27T02:40:25.030Z,46.20
2023-01-27T02:45:31.519Z,42.97
2023-01-27T02:50:34.351Z,42.38
2023-01-27T02:55:37.807Z,40.42
2023-01-27T03:00:39.415Z,41.92
2023-01-27T03:05:44.251Z,43.40
2023-01-27T03:10:50.909Z,39.60
2023-01-27T03:16:17.995Z,46.67
2023-01-27T03:21:19.736Z,45.25
2023-01-27T03:26:21.473Z,44.42
2023-01-27T03:31:27.855Z,43.45
2023-01-27T03:36:55.875Z,42.88
2023-01-27T03:42:18.557Z,42.95
2023-01-27T03:47:21.172Z,44.40
2023-01-27T03:52:22.784Z,48.60
2023-01-27T03:57:36.827Z,47.22
2023-01-27T04:02:57.106Z,47.20
2023-01-27T04:08:03.499Z,46.40
2023-01-27T04:13:17.087Z,52.45
2023-01-27T04:18:19.770Z,50.60
2023-01-27T04:23:21.608Z,52.08
2023-01-27T04:28:41.827Z,51.20
2023-01-27T04:33:45.263Z,51.20
2023-01-27T04:38:46.865Z,52.90
2023-01-27T04:43:50.645Z,46.33
2023-01-27T04:48:54.386Z,48.88
2023-01-27T04:53:56.232Z,50.42
2023-01-27T04:59:01.699Z,48.47
2023-01-27T05:04:03.280Z,46.28
2023-01-27T05:09:07.201Z,47.45
2023-01-27T05:14:08.746Z,52.10
2023-01-27T05:19:10.311Z,50.55
2023-01-27T05:24:16.468Z,47.88
2023-01-27T05:29:23.496Z,50.13
2023-01-27T05:34:25.018Z,48.53
2023-01-27T05:39:27.747Z,49.10
2023-01-27T05:44:32.043Z,54.10
2023-01-27T05:49:36.021Z,50.58
2023-01-27T05:54:47.393Z,47.83
2023-01-27T05:59:48.965Z,47.22
2023-01-27T06:04:50.474Z,46.45
2023-01-27T06:09:52.051Z,47.35
2023-01-27T06:14:55.365Z,42.05
2023-01-27T06:19:56.916Z,41.90
2023-01-27T06:25:00.835Z,41.33
2023-01-27T06:30:02.378Z,41.50
2023-01-27T06:35:10.151Z,48.13
2023-01-27T06:40:15.788Z,41.75
2023-01-27T06:45:20.146Z,37.47
2023-01-27T06:50:36.562Z,39.20
2023-01-27T06:55:44.793Z,43.15
2023-01-27T07:00:46.491Z,40.33
2023-01-27T07:05:48.004Z,42.25
2023-01-27T07:10:49.639Z,41.55
2023-01-27T07:15:56.306Z,37.72
2023-01-27T07:20:58.010Z,37.80
2023-01-27T07:26:04.257Z,37.75
2023-01-27T07:36:14.128Z,40.95
2023-01-27T07:41:24.495Z,37.83
2023-01-27T07:46:26.591Z,38.88
2023-01-27T07:51:35.782Z,39.08
2023-01-27T07:56:37.427Z,40.88
2023-01-27T08:01:41.293Z,35.72
2023-01-27T08:06:42.883Z,40.15
2023-01-27T08:11:49.807Z,41.65
2023-01-27T08:16:51.389Z,40.97
2023-01-27T08:21:57.842Z,37.45
2023-01-27T08:26:59.338Z,34.95
2023-01-27T08:32:03.296Z,34.50
2023-01-27T08:37:05.863Z,36.60
2023-01-27T08:42:07.482Z,32.20
2023-01-27T08:47:11.839Z,31.23
2023-01-27T08:52:15.808Z,32.53
2023-01-27T08:57:20.867Z,31.92
2023-01-27T09:02:26.080Z,27.83
2023-01-27T09:07:27.603Z,31.00
2023-01-27T09:12:29.107Z,29.17
2023-01-27T09:17:37.765Z,29.50
2023-01-27T09:22:40.319Z,26.60
2023-01-27T09:27:44.238Z,26.58
2023-01-27T09:32:52.387Z,25.60
2023-01-27T09:38:09.427Z,27.25
2023-01-27T09:43:37.737Z,18.57
2023-01-27T09:49:27.404Z,29.83
2023-01-27T09:54:52.973Z,22.85
2023-01-27T10:00:00.457Z,23.90
2023-01-27T10:05:11.788Z,23.33
2023-01-27T10:10:47.749Z,19.00
2023-01-27T10:16:15.284Z,29.65
2023-01-27T10:21:28.641Z,24.80
2023-01-27T10:26:42.762Z,24.88
2023-01-27T10:31:52.221Z,23.20
2023-01-27T10:37:17.888Z,24.63
2023-01-27T10:42:38.756Z,21.63
2023-01-27T10:48:07.243Z,23.67
2023-01-27T10:53:46.556Z,21.13
2023-01-27T10:59:12.280Z,22.08
2023-01-27T11:04:33.266Z,21.92
2023-01-27T11:09:37.615Z,22.40
2023-01-27T11:14:49.758Z,24.52
2023-01-27T11:20:13.030Z,21.58
2023-01-27T11:25:27.714Z,24.70
2023-01-27T11:30:56.864Z,22.38
2023-01-27T11:35:58.481Z,26.40
2023-01-27T11:41:00.114Z,23.02
2023-01-27T11:46:13.358Z,22.63
2023-01-27T11:51:22.051Z,23.17
2023-01-27T11:56:24.924Z,23.33
2023-01-27T12:01:39.760Z,22.15
2023-01-27T12:07:26.355Z,22.77
2023-01-27T12:12:37.129Z,22.85
2023-01-27T12:17:41.615Z,19.90
2023-01-27T12:22:49.223Z,25.58
2023-01-27T12:28:01.323Z,18.77
2023-01-27T12:33:17.661Z,20.00
2023-01-27T12:38:27.003Z,18.42
2023-01-27T12:43:33.921Z,19.95
2023-01-27T12:48:46.489Z,19.05
2023-01-27T12:53:49.976Z,17.83
2023-01-27T12:58:54.433Z,18.00
2023-01-27T13:04:03.641Z,16.77
2023-01-27T13:09:05.505Z,18.55
2023-01-27T13:14:09.011Z,16.80
2023-01-27T13:19:21.272Z,18.92
2023-01-27T13:24:41.331Z,17.50
2023-01-27T13:29:58.096Z,16.60
2023-01-27T13:35:18.784Z,16.15
2023-01-27T13:40:44.239Z,16.70
2023-01-27T13:46:21.802Z,15.25
2023-01-27T13:51:33.347Z,17.42
2023-01-27T13:57:16.268Z,15.50
2023-01-27T14:02:36.536Z,17.40
2023-01-27T14:07:51.267Z,16.20
2023-01-27T14:13:13.329Z,14.93
2023-01-27T14:18:32.309Z,16.92
2023-01-27T14:24:11.892Z,16.10
2023-01-27T14:29:33.614Z,19.30
2023-01-27T14:34:42.926Z,14.38
2023-01-27T14:40:09.785Z,18.20
2023-01-27T14:45:31.435Z,18.77
2023-01-27T14:51:01.063Z,18.42
2023-01-27T14:56:21.288Z,19.25
2023-01-27T15:02:10.587Z,16.10
2023-01-27T15:07:20.361Z,14.00
2023-01-27T15:12:44.276Z,16.45
2023-01-27T15:18:03.841Z,17.65
2023-01-27T15:23:28.321Z,14.52
2023-01-27T15:28:32.657Z,16.63
2023-01-27T15:33:54.746Z,16.85
2023-01-27T15:39:11.112Z,18.55
2023-01-27T15:44:30.402Z,17.20
2023-01-27T15:49:40.532Z,15.48
2023-01-27T15:54:42.648Z,14.60
2023-01-27T15:59:58.469Z,13.85
2023-01-27T16:05:36.432Z,13.23
2023-01-27T16:10:38.272Z,14.90
2023-01-27T16:15:42.107Z,13.10
2023-01-27T16:21:08.854Z,12.40
2023-01-27T16:26:30.211Z,14.45
2023-01-27T16:31:32.594Z,12.38
2023-01-27T16:36:38.567Z,13.57
2023-01-27T16:41:46.491Z,13.70
2023-01-27T16:52:00.219Z,13.52
2023-01-27T16:57:06.358Z,11.88
2023-01-27T17:02:20.708Z,11.73
2023-01-27T17:07:25.566Z,16.42
2023-01-27T17:12:40.624Z,14.55
2023-01-27T17:17:42.438Z,16.75
2023-01-27T17:22:45.138Z,12.70
2023-01-27T17:27:51.987Z,19.50
2023-01-27T17:33:04.838Z,13.57
2023-01-27T17:38:24.071Z,14.38
2023-01-27T17:43:31.872Z,16.67
2023-01-27T17:53:39.575Z,16.33
2023-01-27T17:58:50.136Z,18.57
2023-01-27T18:03:57.764Z,19.83
2023-01-27T18:09:14.580Z,22.20
2023-01-27T18:14:20.817Z,18.67
2023-01-27T18:19:26.649Z,17.85
2023-01-27T18:24:28.555Z,24.35
2023-01-27T18:29:39.849Z,19.25
2023-01-27T18:34:46.686Z,24.77
2023-01-27T18:39:50.844Z,20.90
2023-01-27T18:44:56.344Z,28.40
2023-01-27T18:50:07.609Z,22.98
2023-01-27T18:55:26.921Z,23.13
2023-01-27T19:00:38.745Z,23.65
2023-01-27T19:05:45.525Z,22.50
2023-01-27T19:10:55.958Z,22.10
2023-01-27T19:16:01.770Z,22.25
2023-01-27T19:21:03.813Z,22.63
2023-01-27T19:26:14.744Z,23.98
2023-01-27T19:31:20.032Z,24.05
2023-01-27T19:36:35.565Z,23.33
2023-01-27T19:41:37.189Z,25.35
2023-01-27T19:46:42.843Z,24.38
2023-01-27T19:51:46.654Z,25.52
2023-01-27T19:56:51.811Z,24.17
2023-01-27T20:01:56.153Z,21.33
2023-01-27T20:06:59.904Z,23.23
2023-01-27T20:12:01.420Z,22.95
2023-01-27T20:17:05.353Z,24.23
2023-01-27T20:22:10.427Z,23.30
2023-01-27T20:27:11.908Z,21.10
2023-01-27T20:32:16.168Z,21.35
2023-01-27T20:37:17.719Z,22.52
2023-01-27T20:42:19.247Z,23.33
2023-01-27T20:47:23.151Z,24.35
2023-01-27T20:52:27.545Z,22.95
2023-01-27T20:57:33.470Z,23.88
2023-01-27T21:02:36.318Z,20.38
2023-01-27T21:07:41.839Z,19.73
2023-01-27T21:12:45.822Z,23.40
2023-01-27T21:17:51.187Z,20.92
2023-01-27T21:23:02.515Z,21.92
2023-01-27T21:28:04.322Z,21.75
2023-01-27T21:33:05.874Z,24.65
2023-01-27T21:38:07.794Z,19.30
2023-01-27T21:43:28.077Z,19.88
2023-01-27T21:48:29.655Z,16.88
2023-01-27T21:53:40.706Z,16.60
2023-01-27T21:58:48.542Z,19.95
2023-01-27T22:03:52.712Z,23.42
2023-01-27T22:08:58.927Z,21.45
2023-01-27T22:14:10.838Z,21.67
2023-01-27T22:19:14.658Z,20.40
2023-01-27T22:24:16.516Z,20.17
2023-01-27T22:29:22.483Z,20.35
2023-01-27T22:34:26.969Z,16.02
2023-01-27T22:39:28.499Z,16.55
2023-01-27T22:44:34.937Z,15.63
2023-01-27T22:49:37.158Z,14.33
2023-01-27T22:54:38.655Z,17.65
2023-01-27T22:59:40.225Z,14.63
2023-01-27T23:04:44.913Z,15.27
2023-01-27T23:09:46.462Z,15.23
2023-01-27T23:14:48.110Z,14.65
2023-01-27T23:19:49.629Z,15.82
2023-01-27T23:24:54.622Z,11.30
2023-01-27T23:29:56.152Z,14.45
2023-01-27T23:34:59.998Z,15.25
2023-01-27T23:40:05.588Z,13.37
2023-01-27T23:45:10.031Z,15.13
2023-01-27T23:50:15.288Z,15.43
2023-01-27T23:55:17.142Z,16.38
